createdAt,value
2022-09-29T00:00:11.471Z,1.40
2022-09-29T00:00:42.084Z,1.00
2022-09-29T00:01:12.791Z,1.50
2022-09-29T00:01:43.380Z,1.20
2022-09-29T00:02:14.018Z,3.70
2022-09-29T00:02:44.537Z,1.10
2022-09-29T00:03:15.163Z,1.40
2022-09-29T00:03:45.753Z,1.10
2022-09-29T00:04:16.394Z,0.90
2022-09-29T00:04:46.907Z,1.40
2022-09-29T00:05:17.451Z,0.70
2022-09-29T00:05:47.972Z,1.50
2022-09-29T00:06:18.582Z,1.20
2022-09-29T00:06:49.077Z,1.80
2022-09-29T00:07:20.234Z,1.40
2022-09-29T00:07:50.741Z,3.40
2022-09-29T00:08:21.669Z,1.40
2022-09-29T00:08:52.758Z,1.00
2022-09-29T00:09:23.278Z,2.50
2022-09-29T00:09:53.785Z,1.10
2022-09-29T00:10:24.915Z,1.10
2022-09-29T00:10:55.454Z,1.40
2022-09-29T00:11:26.013Z,1.20
2022-09-29T00:11:56.427Z,1.00
2022-09-29T00:12:27.506Z,1.30
2022-09-29T00:12:57.929Z,2.10
2022-09-29T00:13:28.695Z,1.60
2022-09-29T00:13:59.212Z,1.60
2022-09-29T00:14:29.741Z,2.10
2022-09-29T00:15:00.176Z,1.20
2022-09-29T00:15:31.261Z,1.30
2022-09-29T00:16:01.857Z,1.30
2022-09-29T00:16:32.597Z,0.80
2022-09-29T00:17:03.164Z,2.20
2022-09-29T00:17:33.639Z,4.30
2022-09-29T00:18:20.060Z,1.20
2022-09-29T00:18:36.536Z,1.30
2022-09-29T00:19:06.206Z,1.40
2022-09-29T00:19:36.734Z,2.00
2022-09-29T00:20:07.332Z,3.00
2022-09-29T00:20:37.785Z,1.00
2022-09-29T00:21:08.723Z,1.60
2022-09-29T00:21:39.667Z,1.50
2022-09-29T00:22:10.797Z,1.20
2022-09-29T00:22:41.339Z,1.90
2022-09-29T00:23:11.886Z,1.10
2022-09-29T00:23:42.314Z,1.80
2022-09-29T00:24:13.324Z,1.50
2022-09-29T00:24:43.764Z,1.70
2022-09-29T00:25:14.883Z,1.00
2022-09-29T00:25:45.442Z,1.90
2022-09-29T00:26:15.992Z,2.60
2022-09-29T00:26:46.516Z,2.30
2022-09-29T00:27:17.009Z,1.20
2022-09-29T00:27:47.510Z,3.60
2022-09-29T00:28:18.684Z,1.10
2022-09-29T00:28:49.240Z,4.50
2022-09-29T00:29:19.668Z,3.20
2022-09-29T00:29:50.643Z,1.70
2022-09-29T00:30:21.153Z,1.60
2022-09-29T00:30:52.083Z,2.30
2022-09-29T00:31:23.276Z,1.90
2022-09-29T00:31:53.976Z,2.20
2022-09-29T00:32:24.500Z,1.10
2022-09-29T00:32:54.974Z,3.60
2022-09-29T00:33:25.892Z,1.90
2022-09-29T00:33:56.830Z,1.70
2022-09-29T00:34:28.045Z,1.90
2022-09-29T00:34:58.649Z,1.30
2022-09-29T00:35:29.141Z,4.00
2022-09-29T00:35:59.717Z,1.30
2022-09-29T00:36:30.397Z,1.30
2022-09-29T00:37:00.883Z,2.80
2022-09-29T00:37:32.029Z,1.70
2022-09-29T00:38:02.584Z,2.00
2022-09-29T00:38:33.028Z,1.50
2022-09-29T00:39:03.979Z,2.40
2022-09-29T00:39:35.018Z,1.90
2022-09-29T00:40:05.450Z,1.80
2022-09-29T00:40:36.610Z,1.80
2022-09-29T00:41:07.151Z,1.80
2022-09-29T00:41:38.138Z,2.80
2022-09-29T00:42:08.641Z,3.00
2022-09-29T00:42:39.108Z,1.90
2022-09-29T00:43:10.135Z,2.10
2022-09-29T00:43:40.839Z,1.70
2022-09-29T00:44:11.373Z,2.50
2022-09-29T00:44:41.807Z,2.40
2022-09-29T00:45:12.898Z,2.00
2022-09-29T00:45:43.494Z,1.90
2022-09-29T00:46:14.014Z,1.50
2022-09-29T00:46:44.734Z,2.30
2022-09-29T00:47:15.241Z,1.70
2022-09-29T00:47:46.161Z,1.30
2022-09-29T00:48:17.143Z,4.70
2022-09-29T00:48:48.079Z,2.70
2022-09-29T00:49:19.019Z,2.10
2022-09-29T00:49:50.126Z,1.10
2022-09-29T00:50:20.713Z,1.80
2022-09-29T00:50:51.156Z,1.70
2022-09-29T00:51:22.179Z,2.60
2022-09-29T00:51:52.607Z,3.00
2022-09-29T00:52:23.608Z,2.30
2022-09-29T00:52:54.702Z,2.70
2022-09-29T00:53:25.204Z,2.40
2022-09-29T00:53:56.196Z,2.30
2022-09-29T00:54:27.237Z,2.90
2022-09-29T00:54:57.657Z,2.60
2022-09-29T00:55:28.663Z,1.60
2022-09-29T00:55:59.796Z,2.80
2022-09-29T00:56:30.324Z,2.10
2022-09-29T00:57:00.761Z,3.10
2022-09-29T00:57:31.787Z,2.00
2022-09-29T00:58:02.298Z,1.90
2022-09-29T00:58:32.969Z,1.90
2022-09-29T00:59:03.614Z,2.60
2022-09-29T00:59:34.199Z,1.90
2022-09-29T01:00:04.745Z,2.50
2022-09-29T01:00:35.284Z,3.20
2022-09-29T01:01:05.903Z,2.80
2022-09-29T01:01:36.626Z,3.50
2022-09-29T01:02:07.401Z,4.60
2022-09-29T01:02:37.976Z,3.00
2022-09-29T01:03:08.973Z,2.10
2022-09-29T01:03:40.001Z,2.60
2022-09-29T01:04:10.460Z,1.90
2022-09-29T01:04:41.410Z,2.30
2022-09-29T01:05:12.529Z,2.10
2022-09-29T01:05:43.030Z,2.40
2022-09-29T01:06:14.107Z,2.00
2022-09-29T01:06:44.584Z,1.60
2022-09-29T01:07:15.637Z,1.50
2022-09-29T01:07:46.172Z,2.10
2022-09-29T01:08:16.892Z,2.30
2022-09-29T01:08:47.483Z,3.20
2022-09-29T01:09:17.938Z,3.30
2022-09-29T01:09:48.888Z,1.70
2022-09-29T01:10:19.807Z,1.40
2022-09-29T01:10:50.839Z,2.40
2022-09-29T01:11:21.464Z,1.90
2022-09-29T01:11:52.061Z,2.20
2022-09-29T01:12:22.571Z,1.90
2022-09-29T01:12:53.484Z,2.30
2022-09-29T01:13:24.560Z,2.30
2022-09-29T01:13:55.019Z,1.90
2022-09-29T01:14:26.177Z,2.10
2022-09-29T01:14:56.681Z,3.70
2022-09-29T01:15:27.622Z,1.90
2022-09-29T01:15:58.597Z,2.00
2022-09-29T01:16:29.690Z,2.50
2022-09-29T01:17:00.213Z,3.80
2022-09-29T01:17:30.872Z,1.90
2022-09-29T01:18:01.369Z,1.70
2022-09-29T01:18:32.400Z,1.80
2022-09-29T01:19:02.893Z,4.30
2022-09-29T01:19:33.390Z,1.50
2022-09-29T01:20:05.169Z,1.70
2022-09-29T01:20:35.513Z,1.50
2022-09-29T01:21:05.990Z,1.90
2022-09-29T01:21:36.913Z,4.10
2022-09-29T01:22:07.943Z,1.70
2022-09-29T01:22:38.372Z,1.70
2022-09-29T01:23:09.294Z,2.30
2022-09-29T01:23:40.413Z,2.30
2022-09-29T01:24:10.897Z,1.40
2022-09-29T01:24:41.839Z,3.30
2022-09-29T01:25:12.744Z,2.50
2022-09-29T01:25:43.676Z,1.80
2022-09-29T01:26:14.673Z,1.90
2022-09-29T01:26:45.363Z,3.70
2022-09-29T01:27:15.865Z,2.20
2022-09-29T01:27:46.331Z,1.90
2022-09-29T01:28:17.262Z,1.80
2022-09-29T01:28:48.266Z,2.00
2022-09-29T01:29:18.860Z,2.10
2022-09-29T01:29:49.471Z,1.80
2022-09-29T01:30:20.055Z,1.50
2022-09-29T01:30:50.573Z,2.30
2022-09-29T01:31:21.169Z,1.90
2022-09-29T01:31:51.854Z,2.10
2022-09-29T01:32:22.412Z,3.60
2022-09-29T01:32:53.048Z,2.30
2022-09-29T01:33:23.627Z,2.90
2022-09-29T01:33:54.232Z,2.00
2022-09-29T01:34:24.811Z,1.60
2022-09-29T01:34:55.345Z,2.40
2022-09-29T01:35:25.777Z,1.80
2022-09-29T01:35:56.961Z,2.30
2022-09-29T01:36:27.489Z,2.20
2022-09-29T01:36:57.990Z,4.10
2022-09-29T01:37:28.491Z,2.10
2022-09-29T01:37:59.005Z,2.00
2022-09-29T01:38:29.530Z,1.50
2022-09-29T01:39:00.246Z,1.50
2022-09-29T01:39:30.839Z,3.60
2022-09-29T01:40:01.420Z,2.00
2022-09-29T01:40:31.943Z,2.10
2022-09-29T01:41:02.571Z,2.50
2022-09-29T01:41:33.020Z,1.90
2022-09-29T01:42:04.130Z,1.40
2022-09-29T01:42:34.642Z,4.60
2022-09-29T01:43:05.584Z,1.80
2022-09-29T01:43:36.529Z,1.90
2022-09-29T01:44:07.454Z,1.80
2022-09-29T01:44:38.434Z,1.80
2022-09-29T01:45:09.557Z,1.70
2022-09-29T01:45:40.136Z,2.30
2022-09-29T01:46:10.751Z,1.60
2022-09-29T01:46:41.298Z,3.00
2022-09-29T01:47:11.911Z,2.40
2022-09-29T01:47:42.431Z,2.30
2022-09-29T01:48:13.149Z,1.90
2022-09-29T01:48:43.747Z,1.30
2022-09-29T01:49:14.177Z,1.80
2022-09-29T01:49:45.163Z,1.60
2022-09-29T01:50:16.192Z,3.90
2022-09-29T01:50:46.720Z,1.70
2022-09-29T01:51:17.321Z,1.80
2022-09-29T01:51:47.824Z,1.50
2022-09-29T01:52:18.432Z,1.50
2022-09-29T01:52:48.897Z,4.70
2022-09-29T01:53:19.941Z,1.70
2022-09-29T01:53:50.367Z,2.90
2022-09-29T01:54:21.669Z,1.20
2022-09-29T01:54:52.341Z,1.80
2022-09-29T01:55:22.909Z,2.50
2022-09-29T01:55:53.448Z,2.20
2022-09-29T01:56:23.972Z,2.00
2022-09-29T01:56:54.457Z,2.10
2022-09-29T01:57:25.158Z,1.80
2022-09-29T01:57:55.673Z,3.30
2022-09-29T01:58:26.649Z,3.50
2022-09-29T01:58:57.569Z,1.20
2022-09-29T01:59:28.522Z,1.80
2022-09-29T01:59:59.546Z,1.80
2022-09-29T02:00:30.267Z,1.20
2022-09-29T02:01:00.820Z,1.60
2022-09-29T02:01:31.312Z,1.70
2022-09-29T02:02:02.295Z,2.00
2022-09-29T02:02:32.900Z,1.90
2022-09-29T02:03:03.416Z,2.00
2022-09-29T02:03:34.617Z,2.40
2022-09-29T02:04:05.217Z,3.10
2022-09-29T02:04:35.820Z,2.20
2022-09-29T02:05:06.326Z,2.10
2022-09-29T02:05:36.777Z,1.70
2022-09-29T02:06:07.701Z,2.70
2022-09-29T02:06:38.907Z,3.90
2022-09-29T02:07:09.505Z,2.20
2022-09-29T02:07:40.117Z,2.60
2022-09-29T02:08:10.620Z,1.80
2022-09-29T02:08:41.082Z,2.70
2022-09-29T02:09:12.140Z,2.70
2022-09-29T02:09:42.956Z,2.40
2022-09-29T02:10:13.539Z,4.00
2022-09-29T02:10:44.011Z,2.00
2022-09-29T02:11:15.024Z,3.70
2022-09-29T02:11:45.542Z,1.70
2022-09-29T02:12:16.064Z,1.90
2022-09-29T02:12:46.756Z,1.80
2022-09-29T02:13:17.408Z,1.20
2022-09-29T02:13:47.848Z,1.50
2022-09-29T02:14:19.033Z,3.10
2022-09-29T02:14:49.647Z,2.80
2022-09-29T02:15:20.645Z,1.70
2022-09-29T02:15:51.393Z,2.10
2022-09-29T02:16:22.024Z,2.70
2022-09-29T02:16:52.670Z,2.00
2022-09-29T02:17:23.187Z,2.50
2022-09-29T02:17:54.183Z,2.50
2022-09-29T02:18:24.707Z,2.70
2022-09-29T02:18:58.451Z,2.20
2022-09-29T02:19:25.811Z,2.10
2022-09-29T02:19:56.335Z,4.00
2022-09-29T02:20:26.818Z,2.10
2022-09-29T02:20:57.330Z,5.40
2022-09-29T02:21:28.330Z,4.90
2022-09-29T02:21:59.469Z,2.00
2022-09-29T02:22:30.049Z,1.90
2022-09-29T02:23:00.644Z,2.30
2022-09-29T02:23:31.098Z,1.60
2022-09-29T02:24:02.048Z,1.70
2022-09-29T02:24:33.083Z,2.80
2022-09-29T02:25:03.771Z,2.50
2022-09-29T02:25:34.296Z,2.70
2022-09-29T02:26:04.760Z,1.00
2022-09-29T02:26:35.770Z,2.00
2022-09-29T02:27:06.672Z,4.40
2022-09-29T02:27:37.591Z,2.10
2022-09-29T02:28:08.728Z,3.50
2022-09-29T02:28:39.282Z,1.40
2022-09-29T02:29:09.852Z,2.10
2022-09-29T02:29:40.422Z,1.30
2022-09-29T02:30:10.918Z,2.80
2022-09-29T02:30:41.897Z,1.50
2022-09-29T02:31:13.098Z,1.40
2022-09-29T02:31:43.864Z,3.10
2022-09-29T02:32:14.476Z,2.30
2022-09-29T02:32:45.046Z,1.70
2022-09-29T02:33:15.640Z,5.70
2022-09-29T02:33:46.073Z,1.70
2022-09-29T02:34:17.250Z,2.20
2022-09-29T02:34:47.782Z,1.90
2022-09-29T02:35:18.773Z,2.20
2022-09-29T02:35:49.862Z,2.10
2022-09-29T02:36:20.305Z,3.30
2022-09-29T02:36:51.291Z,2.00
2022-09-29T02:37:22.487Z,1.40
2022-09-29T02:37:53.099Z,2.20
2022-09-29T02:38:23.540Z,3.20
2022-09-29T02:38:54.574Z,2.50
2022-09-29T02:39:25.015Z,3.10
2022-09-29T02:39:55.921Z,1.70
2022-09-29T02:40:27.168Z,1.60
2022-09-29T02:40:57.873Z,1.40
2022-09-29T02:41:28.482Z,2.50
2022-09-29T02:41:58.986Z,3.30
2022-09-29T02:42:29.436Z,1.30
2022-09-29T02:43:00.377Z,1.60
2022-09-29T02:43:31.473Z,1.30
2022-09-29T02:44:01.992Z,2.20
2022-09-29T02:44:32.528Z,1.60
2022-09-29T02:45:03.045Z,1.80
2022-09-29T02:45:33.619Z,3.00
2022-09-29T02:46:04.231Z,1.60
2022-09-29T02:46:34.953Z,1.80
2022-09-29T02:47:05.520Z,2.00
2022-09-29T02:47:36.004Z,1.70
2022-09-29T02:48:06.952Z,1.60
2022-09-29T02:48:37.952Z,3.50
2022-09-29T02:49:09.015Z,2.90
2022-09-29T02:49:39.707Z,1.50
2022-09-29T02:50:10.253Z,2.30
2022-09-29T02:50:40.765Z,1.30
2022-09-29T02:51:11.321Z,2.40
2022-09-29T02:51:41.908Z,6.90
2022-09-29T02:52:12.439Z,1.80
2022-09-29T02:52:43.079Z,1.60
2022-09-29T02:53:13.705Z,2.20
2022-09-29T02:53:44.199Z,2.00
2022-09-29T02:54:15.349Z,1.20
2022-09-29T02:54:45.909Z,1.30
2022-09-29T02:55:16.362Z,3.50
2022-09-29T02:55:47.552Z,4.10
2022-09-29T02:56:18.106Z,1.70
2022-09-29T02:56:48.620Z,1.60
2022-09-29T02:57:19.558Z,2.00
2022-09-29T02:57:50.555Z,1.40
2022-09-29T02:58:21.498Z,2.50
2022-09-29T02:58:52.780Z,2.00
2022-09-29T02:59:23.365Z,1.20
2022-09-29T02:59:53.791Z,3.60
2022-09-29T03:00:24.813Z,2.10
2022-09-29T03:00:55.344Z,2.90
2022-09-29T03:01:25.972Z,2.10
2022-09-29T03:01:56.705Z,1.90
2022-09-29T03:02:27.282Z,2.20
2022-09-29T03:02:57.871Z,6.60
2022-09-29T03:03:28.476Z,1.80
2022-09-29T03:04:03.333Z,2.20
2022-09-29T03:04:31.145Z,1.80
2022-09-29T03:05:00.568Z,4.50
2022-09-29T03:05:31.568Z,1.80
2022-09-29T03:06:02.590Z,1.60
2022-09-29T03:06:33.114Z,4.00
2022-09-29T03:07:03.550Z,2.60
2022-09-29T03:07:34.774Z,1.80
2022-09-29T03:08:05.286Z,1.50
2022-09-29T03:08:36.354Z,2.30
2022-09-29T03:09:06.880Z,2.30
2022-09-29T03:09:37.313Z,2.00
2022-09-29T03:10:08.309Z,2.70
2022-09-29T03:10:38.942Z,2.10
2022-09-29T03:11:09.614Z,2.40
2022-09-29T03:11:40.074Z,2.60
2022-09-29T03:12:11.071Z,2.40
2022-09-29T03:12:41.997Z,2.30
2022-09-29T03:13:12.932Z,1.80
2022-09-29T03:13:44.047Z,2.10
2022-09-29T03:14:14.567Z,5.80
2022-09-29T03:14:45.024Z,4.70
2022-09-29T03:15:15.931Z,2.80
2022-09-29T03:15:46.859Z,1.10
2022-09-29T03:16:17.912Z,3.20
2022-09-29T03:16:48.711Z,1.70
2022-09-29T03:17:19.204Z,2.40
2022-09-29T03:17:49.627Z,1.90
2022-09-29T03:18:20.567Z,1.70
2022-09-29T03:18:51.563Z,5.70
2022-09-29T03:19:22.587Z,1.50
2022-09-29T03:19:53.238Z,1.20
2022-09-29T03:20:23.729Z,1.70
2022-09-29T03:20:54.668Z,4.50
2022-09-29T03:21:25.618Z,2.50
2022-09-29T03:21:56.587Z,5.10
2022-09-29T03:22:27.513Z,2.00
2022-09-29T03:22:58.631Z,1.40
2022-09-29T03:23:29.245Z,1.20
2022-09-29T03:23:59.848Z,2.80
2022-09-29T03:24:30.278Z,1.70
2022-09-29T03:25:01.322Z,2.70
2022-09-29T03:25:31.837Z,5.40
2022-09-29T03:26:02.954Z,1.20
2022-09-29T03:26:33.458Z,1.50
2022-09-29T03:27:04.033Z,1.20
2022-09-29T03:27:34.473Z,3.20
2022-09-29T03:28:05.418Z,1.70
2022-09-29T03:28:36.490Z,1.50
2022-09-29T03:29:07.110Z,1.30
2022-09-29T03:29:37.625Z,1.30
2022-09-29T03:30:08.617Z,1.70
2022-09-29T03:30:39.563Z,3.20
2022-09-29T03:31:10.654Z,4.20
2022-09-29T03:31:41.235Z,1.50
2022-09-29T03:32:11.964Z,1.70
2022-09-29T03:32:42.403Z,3.00
2022-09-29T03:33:13.391Z,2.00
2022-09-29T03:33:44.331Z,1.60
2022-09-29T03:34:15.260Z,1.30
2022-09-29T03:34:46.239Z,1.30
2022-09-29T03:35:16.932Z,1.40
2022-09-29T03:35:47.434Z,2.20
2022-09-29T03:36:18.341Z,1.80
2022-09-29T03:36:49.335Z,4.70
2022-09-29T03:37:19.842Z,2.10
2022-09-29T03:37:50.797Z,2.50
2022-09-29T03:38:21.922Z,4.90
2022-09-29T03:38:52.437Z,4.20
2022-09-29T03:39:23.473Z,2.10
2022-09-29T03:39:54.048Z,1.60
2022-09-29T03:40:24.571Z,2.10
2022-09-29T03:40:55.312Z,1.60
2022-09-29T03:41:26.053Z,2.10
2022-09-29T03:41:56.678Z,2.10
2022-09-29T03:42:27.262Z,1.90
2022-09-29T03:42:57.671Z,1.20
2022-09-29T03:43:28.605Z,3.40
2022-09-29T03:43:59.566Z,1.90
2022-09-29T03:44:30.757Z,1.40
2022-09-29T03:45:01.260Z,1.70
2022-09-29T03:45:32.260Z,1.50
2022-09-29T03:46:02.934Z,1.60
2022-09-29T03:46:33.638Z,2.10
2022-09-29T03:47:04.212Z,1.20
2022-09-29T03:47:34.902Z,2.80
2022-09-29T03:48:05.320Z,1.70
2022-09-29T03:48:36.335Z,5.70
2022-09-29T03:49:07.323Z,1.80
2022-09-29T03:49:37.854Z,3.80
2022-09-29T03:50:08.841Z,2.00
2022-09-29T03:50:39.551Z,3.70
2022-09-29T03:51:10.141Z,1.60
2022-09-29T03:51:40.606Z,1.80
2022-09-29T03:52:11.673Z,2.60
2022-09-29T03:52:42.270Z,2.70
2022-09-29T03:53:12.692Z,2.80
2022-09-29T03:53:43.881Z,3.40
2022-09-29T03:54:14.421Z,3.10
2022-09-29T03:54:44.995Z,2.90
2022-09-29T03:55:15.481Z,1.80
2022-09-29T03:55:46.483Z,2.00
2022-09-29T03:56:16.972Z,3.40
2022-09-29T03:56:47.673Z,2.70
2022-09-29T03:57:18.159Z,2.30
2022-09-29T03:57:49.132Z,1.50
2022-09-29T03:58:20.162Z,5.90
2022-09-29T03:58:50.609Z,2.70
2022-09-29T03:59:21.621Z,1.50
2022-09-29T03:59:52.255Z,2.10
2022-09-29T04:00:22.773Z,5.20
2022-09-29T04:00:53.336Z,3.80
2022-09-29T04:01:23.912Z,1.60
2022-09-29T04:01:54.473Z,3.90
2022-09-29T04:02:25.109Z,1.40
2022-09-29T04:02:55.825Z,5.00
2022-09-29T04:03:26.327Z,4.60
2022-09-29T04:03:57.227Z,2.10
2022-09-29T04:04:28.163Z,2.70
2022-09-29T04:04:59.168Z,1.50
2022-09-29T04:05:29.662Z,1.30
2022-09-29T04:06:00.789Z,3.10
2022-09-29T04:06:31.306Z,1.50
2022-09-29T04:07:01.819Z,1.90
2022-09-29T04:07:32.326Z,1.10
2022-09-29T04:08:02.842Z,2.20
2022-09-29T04:08:33.271Z,2.60
2022-09-29T04:09:04.470Z,2.80
2022-09-29T04:09:34.973Z,2.60
2022-09-29T04:10:05.893Z,2.40
2022-09-29T04:10:36.912Z,1.70
2022-09-29T04:11:07.358Z,4.20
2022-09-29T04:11:38.283Z,1.40
2022-09-29T04:12:09.490Z,3.10
2022-09-29T04:12:39.978Z,2.90
2022-09-29T04:13:10.964Z,1.90
2022-09-29T04:13:41.527Z,3.80
2022-09-29T04:14:11.908Z,2.10
2022-09-29T04:14:42.900Z,3.70
2022-09-29T04:15:14.020Z,3.30
2022-09-29T04:15:44.514Z,2.20
2022-09-29T04:16:15.497Z,2.50
2022-09-29T04:16:46.051Z,2.70
2022-09-29T04:17:16.527Z,3.40
2022-09-29T04:17:47.471Z,2.20
2022-09-29T04:18:18.672Z,7.00
2022-09-29T04:18:49.844Z,5.30
2022-09-29T04:19:19.986Z,3.80
2022-09-29T04:19:50.703Z,2.40
2022-09-29T04:20:21.621Z,4.70
2022-09-29T04:20:52.627Z,4.60
2022-09-29T04:21:23.249Z,4.80
2022-09-29T04:21:53.754Z,3.20
2022-09-29T04:22:24.277Z,4.20
2022-09-29T04:22:55.201Z,3.40
2022-09-29T04:23:26.171Z,3.20
2022-09-29T04:23:57.159Z,2.90
2022-09-29T04:24:27.826Z,2.80
2022-09-29T04:24:58.294Z,2.50
2022-09-29T04:25:29.219Z,4.30
2022-09-29T04:26:00.200Z,3.10
2022-09-29T04:26:31.218Z,6.30
2022-09-29T04:27:01.649Z,3.70
2022-09-29T04:27:32.764Z,4.60
2022-09-29T04:28:03.268Z,4.60
2022-09-29T04:28:34.252Z,5.80
2022-09-29T04:29:04.720Z,5.20
2022-09-29T04:29:35.711Z,4.20
2022-09-29T04:30:06.692Z,5.10
2022-09-29T04:30:37.822Z,6.70
2022-09-29T04:31:08.374Z,3.80
2022-09-29T04:31:38.846Z,3.50
2022-09-29T04:32:09.347Z,3.80
2022-09-29T04:32:40.275Z,4.00
2022-09-29T04:33:11.279Z,4.60
2022-09-29T04:33:42.388Z,4.50
2022-09-29T04:34:12.804Z,4.60
2022-09-29T04:34:43.737Z,3.90
2022-09-29T04:35:14.794Z,5.00
2022-09-29T04:35:45.234Z,4.40
2022-09-29T04:36:16.239Z,4.70
2022-09-29T04:36:46.916Z,5.30
2022-09-29T04:37:17.431Z,4.50
2022-09-29T04:37:47.907Z,5.60
2022-09-29T04:38:18.929Z,4.90
2022-09-29T04:38:49.998Z,5.70
2022-09-29T04:39:20.571Z,4.10
2022-09-29T04:39:51.339Z,5.00
2022-09-29T04:40:21.916Z,5.40
2022-09-29T04:40:52.498Z,5.00
2022-09-29T04:41:23.173Z,4.90
2022-09-29T04:41:53.703Z,6.00
2022-09-29T04:42:24.129Z,4.80
2022-09-29T04:42:55.485Z,4.60
2022-09-29T04:43:26.054Z,3.80
2022-09-29T04:43:57.060Z,4.00
2022-09-29T04:44:27.568Z,3.60
2022-09-29T04:44:58.166Z,3.70
2022-09-29T04:45:28.646Z,4.90
2022-09-29T04:45:59.373Z,3.90
2022-09-29T04:46:29.929Z,4.20
2022-09-29T04:47:00.432Z,3.90
2022-09-29T04:47:31.461Z,3.50
2022-09-29T04:48:01.894Z,4.00
2022-09-29T04:48:35.838Z,4.40
2022-09-29T04:49:03.935Z,7.40
2022-09-29T04:49:34.369Z,4.40
2022-09-29T04:50:05.388Z,3.90
2022-09-29T04:50:35.939Z,3.40
2022-09-29T04:51:06.945Z,6.30
2022-09-29T04:51:37.608Z,4.40
2022-09-29T04:52:08.291Z,3.70
2022-09-29T04:52:38.779Z,5.00
2022-09-29T04:53:09.701Z,5.20
2022-09-29T04:53:40.697Z,6.10
2022-09-29T04:54:11.691Z,5.80
2022-09-29T04:54:42.675Z,3.90
2022-09-29T04:55:13.898Z,6.10
2022-09-29T04:55:44.425Z,4.00
2022-09-29T04:56:14.843Z,4.90
2022-09-29T04:56:45.859Z,4.40
2022-09-29T04:57:16.298Z,4.70
2022-09-29T04:57:47.294Z,4.40
2022-09-29T04:58:18.425Z,4.50
2022-09-29T04:58:48.932Z,4.40
2022-09-29T04:59:19.489Z,6.10
2022-09-29T04:59:49.968Z,6.20
2022-09-29T05:07:47.278Z,4.90
2022-09-29T05:08:18.310Z,4.40
2022-09-29T05:08:48.873Z,5.40
2022-09-29T05:09:24.055Z,6.00
2022-09-29T05:09:51.548Z,5.20
2022-09-29T05:10:20.981Z,5.50
2022-09-29T05:10:52.030Z,9.90
2022-09-29T05:11:22.528Z,5.10
2022-09-29T05:11:53.503Z,4.90
2022-09-29T05:12:24.513Z,4.40
2022-09-29T05:12:55.129Z,4.30
2022-09-29T05:13:25.633Z,5.00
2022-09-29T05:13:56.141Z,4.90
2022-09-29T05:14:27.077Z,6.20
2022-09-29T05:14:58.013Z,4.80
2022-09-29T05:15:28.954Z,4.80
2022-09-29T05:16:00.208Z,4.00
2022-09-29T05:16:30.770Z,4.80
2022-09-29T05:17:01.258Z,4.40
2022-09-29T05:17:32.199Z,4.80
2022-09-29T05:18:03.076Z,6.00
2022-09-29T05:18:33.976Z,4.70
2022-09-29T05:19:05.183Z,3.50
2022-09-29T05:19:35.633Z,4.40
2022-09-29T05:20:06.470Z,3.90
2022-09-29T05:20:44.725Z,4.70
2022-09-29T05:21:27.034Z,5.10
2022-09-29T05:21:40.095Z,4.50
2022-09-29T05:22:10.023Z,5.50
2022-09-29T05:22:40.984Z,4.10
2022-09-29T05:23:12.049Z,4.90
2022-09-29T05:23:42.457Z,5.00
2022-09-29T05:24:13.615Z,4.50
2022-09-29T05:24:44.069Z,4.60
2022-09-29T05:25:14.935Z,4.80
2022-09-29T05:25:45.882Z,4.30
2022-09-29T05:26:16.794Z,5.50
2022-09-29T05:26:47.748Z,5.70
2022-09-29T05:27:18.878Z,4.50
2022-09-29T05:27:49.498Z,5.70
2022-09-29T05:28:19.876Z,7.80
2022-09-29T05:28:50.819Z,4.80
2022-09-29T05:29:21.760Z,5.70
2022-09-29T05:29:52.712Z,6.50
2022-09-29T05:30:23.862Z,6.00
2022-09-29T05:30:54.396Z,5.00
2022-09-29T05:31:24.906Z,4.70
2022-09-29T05:31:55.523Z,5.80
2022-09-29T05:32:26.047Z,5.40
2022-09-29T05:32:59.164Z,4.90
2022-09-29T05:33:27.876Z,4.20
2022-09-29T05:33:58.348Z,5.40
2022-09-29T05:34:29.241Z,5.00
2022-09-29T05:35:00.274Z,5.40
2022-09-29T05:35:30.746Z,3.70
2022-09-29T05:36:01.709Z,8.30
2022-09-29T05:36:32.870Z,7.10
2022-09-29T05:37:03.326Z,4.80
2022-09-29T05:37:34.277Z,4.00
2022-09-29T05:38:05.178Z,4.30
2022-09-29T05:38:36.117Z,5.00
2022-09-29T05:39:06.981Z,6.70
2022-09-29T05:39:38.095Z,4.40
2022-09-29T05:40:08.536Z,4.50
2022-09-29T05:40:39.505Z,4.70
2022-09-29T05:41:09.969Z,3.70
2022-09-29T05:41:40.891Z,5.30
2022-09-29T05:42:11.854Z,4.00
2022-09-29T05:42:42.999Z,5.60
2022-09-29T05:43:13.468Z,3.90
2022-09-29T05:43:44.517Z,4.40
2022-09-29T05:44:14.968Z,4.40
2022-09-29T05:44:45.856Z,6.60
2022-09-29T05:45:16.841Z,4.10
2022-09-29T05:45:48.010Z,4.80
2022-09-29T05:46:18.552Z,4.80
2022-09-29T05:46:49.076Z,3.90
2022-09-29T05:47:19.957Z,4.70
2022-09-29T05:47:50.888Z,4.80
2022-09-29T05:48:21.801Z,5.70
2022-09-29T05:48:52.936Z,5.90
2022-09-29T05:49:23.382Z,3.50
2022-09-29T05:49:54.333Z,3.80
2022-09-29T05:50:25.392Z,4.00
2022-09-29T05:50:55.769Z,4.50
2022-09-29T05:51:26.785Z,4.90
2022-09-29T05:51:57.423Z,4.00
2022-09-29T05:52:27.870Z,4.30
2022-09-29T05:52:58.844Z,6.60
2022-09-29T05:53:29.807Z,4.40
2022-09-29T05:54:00.790Z,3.80
2022-09-29T05:54:31.681Z,8.10
2022-09-29T05:55:02.823Z,6.40
2022-09-29T05:55:33.396Z,3.90
2022-09-29T05:56:03.844Z,3.90
2022-09-29T05:56:34.728Z,4.10
2022-09-29T05:57:05.649Z,3.70
2022-09-29T05:57:36.534Z,4.90
2022-09-29T05:58:07.676Z,3.70
2022-09-29T05:58:38.206Z,5.10
2022-09-29T05:59:08.663Z,4.60
2022-09-29T05:59:39.625Z,10.80
2022-09-29T06:00:10.556Z,5.10
2022-09-29T06:00:41.605Z,4.50
2022-09-29T06:01:12.293Z,4.00
2022-09-29T06:01:42.959Z,5.40
2022-09-29T06:02:13.533Z,5.10
2022-09-29T06:02:44.057Z,4.30
2022-09-29T06:03:14.969Z,4.30
2022-09-29T06:03:45.918Z,5.90
2022-09-29T06:04:17.075Z,2.90
2022-09-29T06:04:47.542Z,3.80
2022-09-29T06:05:18.415Z,8.00
2022-09-29T06:05:49.378Z,5.80
2022-09-29T06:06:20.336Z,4.20
2022-09-29T06:06:51.236Z,4.60
2022-09-29T06:07:22.371Z,5.60
2022-09-29T06:07:52.790Z,2.90
2022-09-29T06:08:23.731Z,3.80
2022-09-29T06:08:54.749Z,5.60
2022-09-29T06:09:25.231Z,5.20
2022-09-29T06:09:56.196Z,4.00
2022-09-29T06:10:27.269Z,4.00
2022-09-29T06:10:57.735Z,5.30
2022-09-29T06:11:28.698Z,3.70
2022-09-29T06:11:59.662Z,3.90
2022-09-29T06:12:30.663Z,4.30
2022-09-29T06:13:01.219Z,4.30
2022-09-29T06:13:31.779Z,5.20
2022-09-29T06:14:02.265Z,3.70
2022-09-29T06:14:33.132Z,3.60
2022-09-29T06:15:04.098Z,3.90
2022-09-29T06:15:34.986Z,6.60
2022-09-29T06:16:05.939Z,4.50
2022-09-29T06:16:36.727Z,4.30
2022-09-29T06:17:07.208Z,4.00
2022-09-29T06:17:38.176Z,3.80
2022-09-29T06:18:09.093Z,4.90
2022-09-29T06:18:40.047Z,4.80
2022-09-29T06:19:11.029Z,3.90
2022-09-29T06:19:44.616Z,3.80
2022-09-29T06:20:12.450Z,3.70
2022-09-29T06:20:43.412Z,6.50
2022-09-29T06:21:14.299Z,3.60
2022-09-29T06:21:45.167Z,4.20
2022-09-29T06:22:16.138Z,5.70
2022-09-29T06:22:47.260Z,3.90
2022-09-29T06:23:17.656Z,6.30
2022-09-29T06:23:48.595Z,4.50
2022-09-29T06:24:19.498Z,4.60
2022-09-29T06:24:50.368Z,3.60
2022-09-29T06:25:21.338Z,3.90
2022-09-29T06:25:52.409Z,5.50
2022-09-29T06:26:24.241Z,4.00
2022-09-29T06:26:53.505Z,4.60
2022-09-29T06:27:24.457Z,4.00
2022-09-29T06:27:55.459Z,5.10
2022-09-29T06:28:25.915Z,5.10
2022-09-29T06:28:56.992Z,5.30
2022-09-29T06:29:27.482Z,3.90
2022-09-29T06:29:58.400Z,5.40
2022-09-29T06:30:28.937Z,6.20
2022-09-29T06:30:59.742Z,4.70
2022-09-29T06:31:30.271Z,5.10
2022-09-29T06:32:01.019Z,4.10
2022-09-29T06:32:31.578Z,4.90
2022-09-29T06:33:02.584Z,4.40
2022-09-29T06:33:33.094Z,4.00
2022-09-29T06:34:03.660Z,5.30
2022-09-29T06:34:34.113Z,4.30
2022-09-29T06:35:05.179Z,4.30
2022-09-29T06:35:35.631Z,5.50
2022-09-29T06:36:06.497Z,6.20
2022-09-29T06:36:37.399Z,6.40
2022-09-29T06:37:08.357Z,5.90
2022-09-29T06:37:39.262Z,4.70
2022-09-29T06:38:10.376Z,5.10
2022-09-29T06:38:40.811Z,5.50
2022-09-29T06:39:11.776Z,5.40
2022-09-29T06:39:42.215Z,4.30
2022-09-29T06:40:13.232Z,5.50
2022-09-29T06:40:43.742Z,6.40
2022-09-29T06:41:14.447Z,4.50
2022-09-29T06:41:44.892Z,6.70
2022-09-29T06:42:15.784Z,5.10
2022-09-29T06:42:46.665Z,5.70
2022-09-29T06:43:17.599Z,5.60
2022-09-29T06:43:48.728Z,7.10
2022-09-29T06:44:19.364Z,5.10
2022-09-29T06:44:49.830Z,7.90
2022-09-29T06:45:22.318Z,5.60
2022-09-29T06:45:51.451Z,4.70
2022-09-29T06:46:22.595Z,4.80
2022-09-29T06:46:53.194Z,5.30
2022-09-29T06:47:24.344Z,4.80
2022-09-29T06:47:54.804Z,4.70
2022-09-29T06:48:25.727Z,4.50
2022-09-29T06:48:56.743Z,5.40
2022-09-29T06:49:27.271Z,4.80
2022-09-29T06:50:07.682Z,7.50
2022-09-29T06:50:29.613Z,5.10
2022-09-29T06:51:08.162Z,6.20
2022-09-29T06:51:43.914Z,4.30
2022-09-29T06:52:12.049Z,6.60
2022-09-29T06:52:32.033Z,4.80
2022-09-29T06:53:04.803Z,4.90
2022-09-29T06:53:38.104Z,3.90
2022-09-29T06:54:11.583Z,5.80
2022-09-29T06:54:36.006Z,6.00
2022-09-29T06:55:05.939Z,4.30
2022-09-29T06:55:36.902Z,3.70
2022-09-29T06:56:07.769Z,4.00
2022-09-29T06:56:38.903Z,6.00